createdAt,value
2022-08-30T00:58:32.134Z,21.89
2022-08-30T01:15:21.524Z,21.89
2022-08-30T01:18:50.829Z,21.86
2022-08-30T01:36:52.788Z,21.68
2022-08-30T01:39:50.653Z,21.64
2022-08-30T01:42:52.810Z,21.62
2022-08-30T01:45:53.074Z,21.59
2022-08-30T01:54:51.054Z,21.57
2022-08-30T01:57:25.034Z,21.54
2022-08-30T02:05:52.160Z,21.49
2022-08-30T02:08:20.589Z,21.46
2022-08-30T02:10:53.323Z,21.42
2022-08-30T02:13:53.033Z,21.40
2022-08-30T02:23:06.059Z,21.30
2022-08-30T02:32:19.173Z,21.04
2022-08-30T02:34:53.546Z,20.95
2022-08-30T02:37:54.411Z,20.90
2022-08-30T02:40:51.609Z,20.90
2022-08-30T02:49:50.480Z,20.90
2022-08-30T02:52:25.934Z,20.84
2022-08-30T02:54:56.272Z,20.76
2022-08-30T03:08:53.709Z,20.40
2022-08-30T03:11:52.874Z,20.38
2022-08-30T03:14:21.371Z,20.31
2022-08-30T03:16:52.892Z,20.27
2022-08-30T03:19:53.655Z,20.25
2022-08-30T03:22:52.361Z,20.22
2022-08-30T03:25:24.325Z,20.16
2022-08-30T03:27:52.973Z,20.12
2022-08-30T03:40:12.405Z,19.98
2022-08-30T03:42:52.311Z,19.93
2022-08-30T03:45:55.115Z,19.86
2022-08-30T03:48:53.965Z,19.82
2022-08-30T03:58:22.149Z,19.72
2022-08-30T04:00:53.738Z,19.71
2022-08-30T04:06:52.468Z,19.66
2022-08-30T04:09:26.946Z,19.58
2022-08-30T04:11:58.206Z,19.51
2022-08-30T04:18:53.078Z,19.45
2022-08-30T04:24:53.147Z,19.38
2022-08-30T04:30:53.110Z,19.29
2022-08-30T04:40:53.726Z,19.11
2022-08-30T04:46:09.046Z,19.03
2022-08-30T04:48:53.017Z,19.05
2022-08-30T04:51:51.714Z,19.04
2022-08-30T04:57:07.652Z,19.02
2022-08-30T04:59:56.811Z,18.99
2022-08-30T05:05:56.285Z,18.89
2022-08-30T05:11:55.591Z,18.81
2022-08-30T05:17:24.940Z,18.70
2022-08-30T05:23:08.272Z,18.56
2022-08-30T05:25:54.996Z,18.58
2022-08-30T05:28:26.046Z,18.54
2022-08-30T05:30:54.805Z,18.53
2022-08-30T05:36:58.307Z,18.53
2022-08-30T05:39:52.535Z,18.46
2022-08-30T05:42:23.806Z,18.42
2022-08-30T05:44:55.596Z,18.43
2022-08-30T05:50:57.597Z,18.43
2022-08-30T05:53:31.932Z,18.40
2022-08-30T05:56:53.558Z,18.42
2022-08-30T05:59:24.607Z,18.39
2022-08-30T06:01:59.407Z,18.38
2022-08-30T06:04:55.372Z,18.36
2022-08-30T06:07:53.677Z,18.29
2022-08-30T06:10:25.021Z,18.28
2022-08-30T06:12:54.853Z,18.23
2022-08-30T06:15:55.233Z,18.24
2022-08-30T06:18:28.715Z,18.19
2022-08-30T06:21:33.300Z,18.18
2022-08-30T06:24:02.301Z,18.09
2022-08-30T06:29:25.123Z,18.06
2022-08-30T06:32:02.021Z,18.05
2022-08-30T06:34:54.792Z,18.02
2022-08-30T06:43:28.425Z,17.84
2022-08-30T06:45:57.203Z,17.80
2022-08-30T06:48:25.563Z,17.78
2022-08-30T06:50:58.010Z,17.80
2022-08-30T06:56:58.677Z,17.82
2022-08-30T07:02:55.537Z,17.85
2022-08-30T07:05:24.983Z,17.80
2022-08-30T07:13:56.349Z,17.69
2022-08-30T07:16:24.845Z,17.65
2022-08-30T07:18:59.540Z,17.64
2022-08-30T07:21:54.778Z,17.65
2022-08-30T07:27:56.226Z,17.54
2022-08-30T07:34:27.414Z,17.49
2022-08-30T07:37:05.558Z,17.41
2022-08-30T07:40:06.359Z,17.41
2022-08-30T07:42:57.259Z,17.37
2022-08-30T07:49:45.500Z,17.30
2022-08-30T07:52:59.998Z,17.21
2022-08-30T08:05:32.351Z,17.13
2022-08-30T08:08:57.405Z,17.13
2022-08-30T08:11:33.293Z,17.12
2022-08-30T08:14:03.191Z,17.13
2022-08-30T08:22:58.970Z,17.08
2022-08-30T08:25:28.280Z,17.05
2022-08-30T08:28:26.538Z,17.04
2022-08-30T08:30:57.697Z,17.03
2022-08-30T08:33:25.783Z,16.99
2022-08-30T08:35:57.837Z,17.02
2022-08-30T08:38:26.358Z,17.05
2022-08-30T08:41:07.668Z,17.07
2022-08-30T08:43:58.264Z,17.03
2022-08-30T08:46:55.437Z,17.03
2022-08-30T08:49:25.902Z,17.03
2022-08-30T08:52:24.649Z,17.05
2022-08-30T08:55:27.477Z,17.05
2022-08-30T08:57:56.043Z,17.02
2022-08-30T09:00:27.575Z,16.94
2022-08-30T09:03:05.265Z,16.84
2022-08-30T09:06:25.694Z,16.78
2022-08-30T09:08:58.014Z,16.73
2022-08-30T09:11:56.673Z,16.74
2022-08-30T09:14:57.001Z,16.73
2022-08-30T09:17:27.421Z,16.73
2022-08-30T09:19:55.790Z,16.74
2022-08-30T09:22:53.934Z,16.78
2022-08-30T09:28:28.813Z,16.86
2022-08-30T09:31:12.423Z,16.89
2022-08-30T09:34:10.081Z,16.93
2022-08-30T09:36:57.031Z,16.92
2022-08-30T09:39:34.439Z,16.89
2022-08-30T09:42:54.667Z,16.86
2022-08-30T09:45:57.039Z,16.80
2022-08-30T09:48:30.765Z,16.76
2022-08-30T09:51:58.061Z,16.74
2022-08-30T09:54:20.001Z,16.71
2022-08-30T09:57:33.933Z,16.71
2022-08-30T10:03:56.439Z,16.65
2022-08-30T10:06:55.777Z,16.59
2022-08-30T10:10:02.191Z,16.53
2022-08-30T10:12:59.370Z,16.42
2022-08-30T10:15:55.868Z,16.38
2022-08-30T10:19:02.561Z,16.37
2022-08-30T10:22:00.248Z,16.39
2022-08-30T10:25:08.252Z,16.43
2022-08-30T10:27:56.286Z,16.43
2022-08-30T10:30:29.394Z,16.47
2022-08-30T10:33:28.678Z,16.52
2022-08-30T10:36:04.273Z,16.52
2022-08-30T10:38:59.871Z,16.55
2022-08-30T10:42:29.821Z,16.55
2022-08-30T10:51:04.801Z,16.55
2022-08-30T10:53:58.993Z,16.52
2022-08-30T10:56:30.525Z,16.51
2022-08-30T10:59:01.497Z,16.48
2022-08-30T11:01:57.928Z,16.44
2022-08-30T11:05:03.250Z,16.43
2022-08-30T11:07:38.601Z,16.41
2022-08-30T11:10:28.625Z,16.42
2022-08-30T11:13:30.646Z,16.38
2022-08-30T11:16:05.675Z,16.33
2022-08-30T11:18:45.183Z,16.30
2022-08-30T11:21:56.270Z,16.32
2022-08-30T11:24:30.408Z,16.31
2022-08-30T11:29:47.975Z,16.33
2022-08-30T11:32:59.131Z,16.35
2022-08-30T11:36:01.406Z,16.36
2022-08-30T11:38:31.383Z,16.33
2022-08-30T11:40:59.900Z,16.33
2022-08-30T11:43:59.830Z,16.35
2022-08-30T11:46:28.334Z,16.33
2022-08-30T11:49:00.763Z,16.38
2022-08-30T11:56:28.186Z,16.44
2022-08-30T11:59:27.014Z,16.43
2022-08-30T12:02:28.615Z,16.50
2022-08-30T12:05:31.610Z,16.58
2022-08-30T12:12:27.336Z,16.72
2022-08-30T12:15:29.508Z,16.80
2022-08-30T12:18:18.893Z,16.81
2022-08-30T12:20:53.928Z,16.81
2022-08-30T12:23:25.173Z,16.77
2022-08-30T12:26:13.682Z,16.64
2022-08-30T12:28:44.620Z,16.56
2022-08-30T12:31:17.399Z,16.53
2022-08-30T12:33:54.652Z,16.48
2022-08-30T12:36:54.317Z,16.46
2022-08-30T12:39:34.101Z,16.40
2022-08-30T12:42:20.092Z,16.37
2022-08-30T12:44:59.697Z,16.34
2022-08-30T12:47:53.662Z,16.35
2022-08-30T12:51:00.141Z,16.39
2022-08-30T12:53:41.726Z,16.38
2022-08-30T12:56:21.225Z,16.39
2022-08-30T12:58:59.734Z,16.39
2022-08-30T13:01:33.353Z,16.42
2022-08-30T13:04:19.687Z,16.42
2022-08-30T13:07:02.635Z,16.41
2022-08-30T13:09:35.578Z,16.38
2022-08-30T13:12:11.241Z,16.37
2022-08-30T13:14:43.525Z,16.35
2022-08-30T13:17:32.117Z,16.34
2022-08-30T13:20:22.711Z,16.32
2022-08-30T13:23:11.740Z,16.29
2022-08-30T13:25:43.145Z,16.27
2022-08-30T13:28:15.043Z,16.25
2022-08-30T13:30:43.444Z,16.13
2022-08-30T13:33:12.826Z,16.06
2022-08-30T13:35:44.267Z,16.08
2022-08-30T13:38:12.579Z,16.09
2022-08-30T13:40:42.489Z,16.09
2022-08-30T13:43:11.419Z,15.98
2022-08-30T13:45:41.444Z,15.85
2022-08-30T13:48:14.676Z,15.79
2022-08-30T13:50:46.364Z,15.84
2022-08-30T13:53:51.790Z,15.82
2022-08-30T13:56:05.015Z,15.69
2022-08-30T13:58:33.954Z,15.58
2022-08-30T14:02:07.063Z,15.51
2022-08-30T14:04:29.960Z,15.54
2022-08-30T14:07:16.767Z,15.49
2022-08-30T14:10:30.335Z,15.53
2022-08-30T14:13:02.602Z,15.64
2022-08-30T14:15:36.160Z,15.69
2022-08-30T14:18:08.658Z,15.71
2022-08-30T14:20:38.397Z,15.65
2022-08-30T14:23:10.174Z,15.64
2022-08-30T14:25:42.441Z,15.71
2022-08-30T14:28:14.769Z,15.80
2022-08-30T14:30:45.038Z,15.87
2022-08-30T14:33:14.455Z,15.94
2022-08-30T14:35:43.257Z,15.99
2022-08-30T14:42:04.213Z,16.20
2022-08-30T14:44:54.775Z,16.31
2022-08-30T14:53:09.960Z,16.55
2022-08-30T14:55:38.358Z,16.63
2022-08-30T14:58:08.008Z,16.72
2022-08-30T15:00:36.854Z,16.83
2022-08-30T15:03:05.712Z,16.94
2022-08-30T15:05:34.397Z,17.03
2022-08-30T15:08:02.601Z,17.12
2022-08-30T15:10:31.620Z,17.21
2022-08-30T15:13:00.624Z,17.30
2022-08-30T15:15:34.106Z,17.37
2022-08-30T15:18:03.263Z,17.39
2022-08-30T15:20:32.298Z,17.37
2022-08-30T15:23:26.300Z,17.37
2022-08-30T15:25:57.527Z,17.42
2022-08-30T15:28:25.364Z,17.50
2022-08-30T15:30:54.228Z,17.62
2022-08-30T15:33:58.621Z,17.75
2022-08-30T15:36:28.992Z,17.82
2022-08-30T15:38:58.136Z,17.92
2022-08-30T15:41:26.834Z,18.04
2022-08-30T15:43:58.325Z,18.12
2022-08-30T15:46:33.055Z,18.31
2022-08-30T15:49:23.069Z,18.43
2022-08-30T15:51:54.202Z,18.50
2022-08-30T15:54:24.830Z,18.55
2022-08-30T15:56:59.966Z,18.60
2022-08-30T15:59:30.336Z,18.68
2022-08-30T16:01:58.909Z,18.82
2022-08-30T16:04:27.747Z,18.95
2022-08-30T16:06:56.324Z,19.08
2022-08-30T16:09:25.591Z,19.23
2022-08-30T16:11:58.644Z,19.36
2022-08-30T16:14:32.973Z,19.49
2022-08-30T16:17:01.448Z,19.59
2022-08-30T16:19:29.812Z,19.62
2022-08-30T16:21:58.784Z,19.64
2022-08-30T16:24:27.139Z,19.73
2022-08-30T16:26:56.066Z,19.91
2022-08-30T16:29:24.555Z,20.12
2022-08-30T16:31:54.399Z,20.28
2022-08-30T16:34:25.923Z,20.45
2022-08-30T16:36:54.757Z,20.62
2022-08-30T16:39:23.819Z,20.68
2022-08-30T16:48:09.272Z,20.77
2022-08-30T16:51:11.082Z,20.89
2022-08-30T16:53:59.760Z,21.02
2022-08-30T16:56:30.286Z,21.15
2022-08-30T16:59:02.822Z,21.20
2022-08-30T17:01:35.775Z,21.29
2022-08-30T17:04:06.099Z,21.32
2022-08-30T17:06:38.679Z,21.30
2022-08-30T17:09:25.753Z,21.31
2022-08-30T17:11:58.626Z,21.31
2022-08-30T17:14:30.250Z,21.33
2022-08-30T17:17:00.851Z,21.30
2022-08-30T17:19:30.520Z,21.34
2022-08-30T17:21:59.234Z,21.42
2022-08-30T17:24:28.480Z,21.41
2022-08-30T17:26:58.302Z,21.50
2022-08-30T17:29:27.214Z,21.52
2022-08-30T17:31:56.118Z,21.72
2022-08-30T17:34:29.334Z,21.98
2022-08-30T17:36:59.888Z,22.23
2022-08-30T17:39:29.655Z,22.38
2022-08-30T17:41:58.737Z,22.43
2022-08-30T17:44:31.629Z,22.48
2022-08-30T17:47:01.037Z,22.62
2022-08-30T17:49:31.207Z,22.80
2022-08-30T17:52:28.489Z,23.11
2022-08-30T17:54:57.023Z,23.28
2022-08-30T17:57:26.084Z,23.13
2022-08-30T17:59:54.518Z,23.02
2022-08-30T18:02:23.049Z,22.79
2022-08-30T18:04:59.254Z,22.83
2022-08-30T18:07:28.053Z,22.91
2022-08-30T18:16:27.039Z,22.94
2022-08-30T18:21:40.477Z,22.90
2022-08-30T18:24:10.679Z,22.85
2022-08-30T18:28:01.520Z,22.74
2022-08-30T18:30:39.937Z,22.67
2022-08-30T18:33:29.314Z,22.66
2022-08-30T18:36:32.516Z,22.63
2022-08-30T18:39:04.370Z,22.64
2022-08-30T18:41:32.696Z,22.67
2022-08-30T18:44:17.410Z,22.68
2022-08-30T18:47:27.153Z,22.74
2022-08-30T18:50:10.887Z,22.79
2022-08-30T18:53:00.453Z,22.74
2022-08-30T18:55:32.548Z,22.77
2022-08-30T19:01:29.177Z,22.81
2022-08-30T19:10:08.266Z,22.78
2022-08-30T19:12:43.565Z,22.78
2022-08-30T19:15:13.252Z,22.79
2022-08-30T19:17:44.825Z,22.78
2022-08-30T19:20:39.440Z,22.84
2022-08-30T19:23:10.446Z,22.91
2022-08-30T19:25:41.589Z,22.94
2022-08-30T19:28:18.586Z,22.92
2022-08-30T19:32:00.440Z,22.90
2022-08-30T19:34:30.854Z,22.90
2022-08-30T19:37:02.328Z,22.98
2022-08-30T19:42:01.874Z,23.03
2022-08-30T19:44:33.369Z,23.10
2022-08-30T19:47:02.773Z,23.17
2022-08-30T19:49:30.997Z,23.18
2022-08-30T19:52:00.063Z,23.25
2022-08-30T19:54:29.078Z,23.30
2022-08-30T19:56:58.596Z,23.28
2022-08-30T19:59:31.722Z,23.33
2022-08-30T20:02:00.240Z,23.38
2022-08-30T20:04:34.398Z,23.48
2022-08-30T20:07:02.635Z,23.53
2022-08-30T20:09:31.233Z,23.54
2022-08-30T20:12:02.639Z,23.56
2022-08-30T20:14:33.614Z,23.59
2022-08-30T20:17:02.277Z,23.53
2022-08-30T20:19:34.536Z,23.46
2022-08-30T20:22:07.902Z,23.43
2022-08-30T20:24:37.853Z,23.42
2022-08-30T20:27:08.199Z,23.47
2022-08-30T20:29:38.686Z,23.51
2022-08-30T20:32:07.051Z,23.48
2022-08-30T20:34:35.406Z,23.48
2022-08-30T20:37:03.683Z,23.46
2022-08-30T20:39:31.910Z,23.45
2022-08-30T20:42:33.420Z,23.44
2022-08-30T20:45:02.270Z,23.46
2022-08-30T20:47:30.910Z,23.48
2022-08-30T20:50:32.778Z,23.48
2022-08-30T20:53:06.208Z,23.55
2022-08-30T20:55:34.566Z,23.58
2022-08-30T20:58:02.768Z,23.67
2022-08-30T21:00:31.404Z,23.74
2022-08-30T21:03:00.309Z,23.81
2022-08-30T21:05:31.770Z,23.87
2022-08-30T21:08:00.830Z,23.94
2022-08-30T21:10:38.398Z,23.99
2022-08-30T21:13:06.628Z,24.01
2022-08-30T21:15:37.737Z,24.04
2022-08-30T21:18:06.784Z,24.07
2022-08-30T21:20:35.198Z,24.13
2022-08-30T21:23:03.601Z,24.18
2022-08-30T21:25:40.403Z,24.21
2022-08-30T21:28:33.018Z,24.29
2022-08-30T21:31:06.740Z,24.33
2022-08-30T21:33:35.036Z,24.35
2022-08-30T21:36:22.805Z,24.35
2022-08-30T21:39:00.612Z,24.34
2022-08-30T21:41:38.169Z,24.31
2022-08-30T21:44:10.951Z,24.25
2022-08-30T21:46:42.151Z,24.22
2022-08-30T21:49:13.021Z,24.13
2022-08-30T21:51:44.564Z,24.11
2022-08-30T21:54:32.390Z,24.13
2022-08-30T21:57:20.589Z,24.12
2022-08-30T22:00:01.427Z,24.10
2022-08-30T22:02:33.453Z,24.13
2022-08-30T22:05:02.078Z,24.11
2022-08-30T22:07:33.904Z,24.08
2022-08-30T22:10:06.698Z,24.04
2022-08-30T22:12:35.450Z,24.04
2022-08-30T22:15:14.697Z,23.99
2022-08-30T22:17:42.985Z,23.95
2022-08-30T22:20:15.117Z,23.95
2022-08-30T22:22:56.033Z,23.94
2022-08-30T22:25:25.758Z,23.89
2022-08-30T22:27:55.134Z,23.84
2022-08-30T22:30:23.468Z,23.77
2022-08-30T22:32:55.391Z,23.77
2022-08-30T22:35:26.701Z,23.76
2022-08-30T22:39:10.521Z,23.72
2022-08-30T23:20:51.340Z,22.65
2022-08-30T23:27:12.319Z,22.48
2022-08-30T23:34:14.402Z,22.42
2022-08-30T23:37:52.152Z,22.37
2022-08-30T23:41:13.656Z,22.45
